Time;durP1;ratioP1;P1;durP2;ratioP2;P2;SDS_P1;SDS_P2;PMS_P1;PMS_P2;Temp;Humidity;BMP_temperature;BMP_pressure;BME280_temperature;BME280_humidity;BME280_pressure;Samples;Min_cycle;Max_cycle;Signal;HPM_P1;HPM_P2
2022/02/13 00:02:15;;;;;;;0.40;0.25;;;1.40;99.90;;;;;;4985881;28;20402;-71
2022/02/13 00:04:41;;;;;;;0.40;0.27;;;1.30;99.90;;;;;;4971658;28;21238;-71
2022/02/13 00:07:07;;;;;;;0.50;0.50;;;1.40;99.90;;;;;;4989413;28;20894;-71
2022/02/13 00:09:32;;;;;;;0.40;0.20;;;1.30;99.90;;;;;;4989171;28;20461;-70
2022/02/13 00:12:02;;;;;;;0.40;0.20;;;1.30;99.90;;;;;;4988664;28;20454;-71
2022/02/13 00:14:33;;;;;;;1.90;0.80;;;1.30;99.90;;;;;;4972266;28;20405;-71
2022/02/13 00:16:59;;;;;;;0.40;0.30;;;1.30;99.90;;;;;;4971552;28;20394;-70
2022/02/13 00:19:24;;;;;;;0.40;0.30;;;1.30;99.90;;;;;;4988552;28;20863;-71
2022/02/13 00:21:50;;;;;;;0.40;0.20;;;1.30;99.90;;;;;;4985200;28;20391;-71
2022/02/13 00:24:16;;;;;;;0.50;0.50;;;1.20;99.90;;;;;;4989269;28;20800;-71
2022/02/13 00:26:42;;;;;;;4.05;0.75;;;1.20;99.90;;;;;;4989270;28;20395;-71
2022/02/13 00:29:09;;;;;;;0.40;0.20;;;1.20;99.90;;;;;;4988198;28;20446;-71
2022/02/13 00:31:35;;;;;;;0.60;0.60;;;1.20;99.90;;;;;;4984766;28;20424;-71
2022/02/13 00:34:01;;;;;;;0.60;0.60;;;1.20;99.90;;;;;;4988987;28;20482;-71
2022/02/13 00:36:26;;;;;;;0.40;0.20;;;1.20;99.90;;;;;;4989396;28;20426;-70
2022/02/13 00:38:52;;;;;;;0.40;0.20;;;1.20;99.90;;;;;;4990179;28;20414;-73
2022/02/13 00:41:18;;;;;;;0.40;0.20;;;1.20;99.90;;;;;;4990194;28;20416;-73
2022/02/13 00:43:44;;;;;;;0.40;0.30;;;1.20;99.90;;;;;;4973388;28;20407;-73
2022/02/13 00:46:09;;;;;;;0.40;0.20;;;1.30;99.90;;;;;;4990052;28;20382;-73
2022/02/13 00:48:35;;;;;;;0.40;0.20;;;1.30;99.90;;;;;;4990783;28;20406;-74
2022/02/13 00:51:01;;;;;;;0.40;0.30;;;1.20;99.90;;;;;;4990365;28;20383;-73
2022/02/13 00:53:26;;;;;;;0.40;0.20;;;1.20;99.90;;;;;;4972348;28;20425;-73
2022/02/13 00:55:52;;;;;;;0.40;0.20;;;1.30;99.90;;;;;;4994679;28;20383;-73
2022/02/13 00:58:18;;;;;;;0.40;0.20;;;1.30;99.90;;;;;;4976602;28;20521;-73
2022/02/13 01:00:44;;;;;;;0.40;0.20;;;1.30;99.90;;;;;;4977329;28;20403;-73
2022/02/13 01:03:09;;;;;;;0.43;0.43;;;1.20;99.90;;;;;;4994652;28;20841;-73
2022/02/13 01:05:35;;;;;;;0.60;0.50;;;1.20;99.90;;;;;;4993775;28;20386;-73
2022/02/13 01:08:01;;;;;;;0.40;0.20;;;1.20;99.90;;;;;;4994411;28;20918;-73
2022/02/13 01:10:28;;;;;;;0.40;0.20;;;1.30;99.90;;;;;;4993129;28;20437;-73
2022/02/13 01:12:54;;;;;;;0.40;0.20;;;1.40;99.90;;;;;;4994131;28;20418;-73
2022/02/13 01:15:21;;;;;;;0.40;0.20;;;1.40;99.90;;;;;;4994160;28;20437;-73
2022/02/13 01:17:47;;;;;;;0.40;0.20;;;1.50;99.90;;;;;;4993675;28;20569;-73
2022/02/13 01:20:12;;;;;;;1.30;0.60;;;1.40;99.90;;;;;;4980636;28;20479;-73
2022/02/13 01:22:38;;;;;;;0.40;0.20;;;1.40;99.90;;;;;;4974116;28;20450;-73
2022/02/13 01:25:05;;;;;;;0.40;0.20;;;1.40;99.90;;;;;;4974863;28;20458;-73
2022/02/13 01:27:31;;;;;;;0.40;0.20;;;1.30;99.90;;;;;;4974742;28;20399;-73
2022/02/13 01:29:57;;;;;;;0.40;0.20;;;1.20;99.90;;;;;;4974379;28;20392;-73
2022/02/13 01:32:22;;;;;;;2.80;0.60;;;1.10;99.90;;;;;;4974685;28;20908;-73
2022/02/13 01:34:48;;;;;;;0.40;0.20;;;1.20;99.90;;;;;;4973880;28;20395;-74
2022/02/13 01:37:14;;;;;;;0.40;0.20;;;1.10;99.90;;;;;;4974401;28;20403;-73
2022/02/13 01:39:39;;;;;;;0.40;0.40;;;1.20;99.90;;;;;;4974395;28;20380;-73
2022/02/13 01:42:09;;;;;;;0.40;0.20;;;1.20;99.90;;;;;;4973819;28;20400;-73
2022/02/13 01:44:34;;;;;;;0.50;0.50;;;1.30;99.90;;;;;;4974183;28;20430;-73
2022/02/13 01:47:02;;;;;;;0.40;0.20;;;1.20;99.90;;;;;;4973619;28;20384;-73
2022/02/13 01:49:28;;;;;;;0.40;0.20;;;1.30;99.90;;;;;;4974303;28;20380;-73
2022/02/13 01:51:56;;;;;;;0.40;0.30;;;1.20;99.90;;;;;;4973348;28;20420;-73
2022/02/13 01:54:22;;;;;;;0.90;0.70;;;1.30;99.90;;;;;;4974102;28;20388;-73
2022/02/13 01:56:47;;;;;;;1.40;0.60;;;1.20;99.90;;;;;;4974266;28;20723;-73
2022/02/13 01:59:13;;;;;;;0.40;0.20;;;1.20;99.90;;;;;;4973459;28;20748;-73
2022/02/13 02:01:40;;;;;;;0.40;0.20;;;1.30;99.90;;;;;;4974102;28;20400;-73
2022/02/13 02:04:06;;;;;;;0.40;0.20;;;1.30;99.90;;;;;;4973387;28;20737;-73
2022/02/13 02:06:31;;;;;;;0.40;0.30;;;1.40;99.90;;;;;;4973769;28;20393;-73
2022/02/13 02:08:57;;;;;;;0.40;0.20;;;1.40;99.90;;;;;;4956662;28;20416;-73
2022/02/13 02:11:23;;;;;;;0.40;0.20;;;1.40;99.90;;;;;;4973114;28;20511;-73
2022/02/13 02:13:49;;;;;;;0.40;0.20;;;1.40;99.90;;;;;;4973869;28;20563;-73
2022/02/13 02:16:15;;;;;;;0.40;0.20;;;1.40;99.90;;;;;;4973115;28;20471;-73
2022/02/13 02:18:41;;;;;;;0.40;0.20;;;1.40;99.90;;;;;;4975224;28;20399;-73
2022/02/13 02:21:08;;;;;;;0.40;0.20;;;1.50;99.90;;;;;;4992957;28;20387;-73
2022/02/13 02:23:35;;;;;;;0.40;0.20;;;1.60;99.90;;;;;;4975347;28;20395;-73
2022/02/13 02:26:01;;;;;;;0.40;0.40;;;1.50;99.90;;;;;;4993062;28;20391;-73
2022/02/13 02:28:27;;;;;;;0.40;0.20;;;1.50;99.90;;;;;;4992314;28;20378;-73
2022/02/13 02:30:53;;;;;;;0.40;0.40;;;1.50;99.90;;;;;;4993019;28;20460;-73
2022/02/13 02:33:22;;;;;;;0.40;0.20;;;1.40;99.90;;;;;;4991731;28;20414;-73
2022/02/13 02:35:48;;;;;;;0.40;0.20;;;1.50;99.90;;;;;;4993349;28;20395;-73
2022/02/13 02:38:14;;;;;;;0.40;0.40;;;1.40;99.90;;;;;;4992985;28;20390;-73
2022/02/13 02:40:41;;;;;;;0.40;0.20;;;1.30;99.90;;;;;;4992159;28;20416;-73
2022/02/13 02:43:06;;;;;;;1.13;0.55;;;1.50;99.90;;;;;;4992667;28;20399;-73
2022/02/13 02:45:32;;;;;;;0.40;0.40;;;1.50;99.90;;;;;;4974551;28;20397;-73
2022/02/13 02:47:58;;;;;;;0.40;0.23;;;1.50;99.90;;;;;;4992692;28;20478;-73
2022/02/13 02:50:23;;;;;;;0.40;0.20;;;1.50;99.90;;;;;;4992759;28;20393;-73
2022/02/13 02:52:49;;;;;;;0.40;0.30;;;1.50;99.90;;;;;;4991825;28;20490;-73
2022/02/13 02:55:15;;;;;;;0.40;0.20;;;1.60;99.90;;;;;;4992596;28;20390;-73
2022/02/13 02:57:41;;;;;;;0.40;0.40;;;1.60;99.90;;;;;;4991534;28;20744;-73
2022/02/13 03:00:08;;;;;;;0.40;0.20;;;1.70;99.90;;;;;;4992523;28;20382;-73
2022/02/13 03:02:34;;;;;;;0.40;0.20;;;1.70;99.90;;;;;;4991971;28;20983;-73
2022/02/13 03:05:00;;;;;;;0.40;0.30;;;1.60;99.90;;;;;;4991968;28;20399;-73
2022/02/13 03:07:26;;;;;;;0.40;0.20;;;1.70;99.90;;;;;;4992426;28;20389;-73
2022/02/13 03:09:51;;;;;;;0.40;0.20;;;1.70;99.90;;;;;;4991104;28;20541;-73
2022/02/13 03:12:17;;;;;;;0.40;0.20;;;1.70;99.90;;;;;;4992163;28;20498;-73
2022/02/13 03:14:43;;;;;;;0.40;0.20;;;1.70;99.90;;;;;;4991731;28;20434;-73
2022/02/13 03:17:09;;;;;;;0.50;0.50;;;1.70;99.90;;;;;;4991069;28;20390;-73
2022/02/13 03:19:35;;;;;;;0.40;0.20;;;1.80;99.90;;;;;;4974837;28;20386;-73
2022/02/13 03:22:01;;;;;;;0.40;0.20;;;1.70;99.90;;;;;;4991558;28;20395;-74
2022/02/13 03:24:26;;;;;;;0.40;0.20;;;1.70;99.90;;;;;;4992009;28;20994;-74
2022/02/13 03:26:52;;;;;;;0.90;0.80;;;1.60;99.90;;;;;;4991371;28;21014;-73
2022/02/13 03:29:18;;;;;;;0.40;0.20;;;1.60;99.90;;;;;;4991455;28;20875;-73
2022/02/13 03:31:44;;;;;;;0.40;0.20;;;1.60;99.90;;;;;;4991497;28;20898;-73
2022/02/13 03:34:10;;;;;;;0.70;0.70;;;1.70;99.90;;;;;;4991087;28;20454;-73
2022/02/13 03:36:35;;;;;;;0.40;0.20;;;1.70;99.90;;;;;;4991461;28;20395;-73
2022/02/13 03:39:01;;;;;;;0.40;0.20;;;1.70;99.90;;;;;;4991237;28;20391;-73
2022/02/13 03:41:27;;;;;;;0.40;0.20;;;1.80;99.90;;;;;;4991748;28;20855;-73
2022/02/13 03:43:53;;;;;;;0.40;0.20;;;1.80;99.90;;;;;;4991730;28;20449;-73
2022/02/13 03:46:18;;;;;;;0.40;0.20;;;1.80;99.90;;;;;;4991168;28;20401;-73
2022/02/13 03:48:44;;;;;;;0.40;0.20;;;1.70;99.90;;;;;;4991675;28;20412;-73
2022/02/13 03:51:10;;;;;;;0.40;0.20;;;1.80;99.90;;;;;;4990781;28;20863;-73
2022/02/13 03:53:36;;;;;;;0.40;0.30;;;1.90;99.90;;;;;;4991479;28;20425;-73
2022/02/13 03:56:01;;;;;;;0.40;0.20;;;1.70;99.90;;;;;;4991549;28;20383;-73
2022/02/13 03:58:27;;;;;;;0.40;0.30;;;1.70;99.90;;;;;;4990635;28;20404;-73
2022/02/13 04:00:53;;;;;;;0.40;0.20;;;1.80;99.90;;;;;;4991499;28;20383;-73
2022/02/13 04:03:18;;;;;;;0.40;0.20;;;1.80;99.90;;;;;;4990733;28;20441;-73
2022/02/13 04:05:44;;;;;;;0.40;0.28;;;1.80;99.90;;;;;;4991386;28;20397;-73
2022/02/13 04:08:10;;;;;;;0.40;0.20;;;1.80;99.90;;;;;;4991282;28;20408;-71
2022/02/13 04:10:35;;;;;;;0.70;0.70;;;1.70;99.90;;;;;;4990393;28;20416;-73
2022/02/13 04:13:01;;;;;;;0.40;0.20;;;1.80;99.90;;;;;;4990865;28;20489;-73
2022/02/13 04:15:27;;;;;;;0.40;0.20;;;1.90;99.90;;;;;;4973126;28;20378;-73
2022/02/13 04:17:53;;;;;;;0.40;0.20;;;1.90;99.90;;;;;;4973696;28;20419;-73
2022/02/13 04:20:21;;;;;;;0.40;0.30;;;1.90;99.90;;;;;;4973820;28;20819;-73
2022/02/13 04:22:47;;;;;;;0.40;0.20;;;1.90;99.90;;;;;;4990010;28;20878;-73
2022/02/13 04:25:13;;;;;;;0.40;0.20;;;1.90;99.90;;;;;;4991378;28;20390;-73
2022/02/13 04:27:39;;;;;;;0.40;0.20;;;2.00;99.90;;;;;;4990199;28;20436;-73
2022/02/13 04:30:06;;;;;;;0.40;0.20;;;2.00;99.90;;;;;;4990784;28;20383;-73
2022/02/13 04:32:32;;;;;;;0.40;0.20;;;1.90;99.90;;;;;;4973916;28;20430;-73
2022/02/13 04:34:58;;;;;;;0.40;0.20;;;1.90;99.90;;;;;;4990643;28;20727;-73
2022/02/13 04:37:24;;;;;;;0.40;0.20;;;1.90;99.90;;;;;;4991322;28;20790;-73
2022/02/13 04:39:50;;;;;;;0.50;0.50;;;1.80;99.90;;;;;;4990529;28;20398;-73
2022/02/13 04:42:16;;;;;;;0.40;0.20;;;1.80;99.90;;;;;;4991280;28;20397;-73
2022/02/13 04:44:43;;;;;;;0.40;0.20;;;1.70;99.90;;;;;;4991360;28;20390;-73
2022/02/13 04:47:09;;;;;;;0.40;0.20;;;1.70;99.90;;;;;;4990374;28;20394;-73
2022/02/13 04:49:35;;;;;;;0.40;0.20;;;1.90;99.90;;;;;;4991415;28;20394;-73
2022/02/13 04:52:01;;;;;;;0.40;0.20;;;1.90;99.90;;;;;;4990447;28;20425;-73
2022/02/13 04:54:26;;;;;;;0.40;0.20;;;1.90;99.90;;;;;;4991248;28;20445;-73
2022/02/13 04:56:52;;;;;;;2.10;0.50;;;1.90;99.90;;;;;;4973859;28;20477;-73
2022/02/13 04:59:21;;;;;;;0.40;0.20;;;2.00;99.90;;;;;;4990375;28;20497;-73
2022/02/13 05:01:47;;;;;;;0.60;0.60;;;2.00;99.90;;;;;;4991303;28;20437;-73
2022/02/13 05:04:12;;;;;;;0.40;0.20;;;2.00;99.90;;;;;;4973069;28;20386;-73
2022/02/13 05:06:38;;;;;;;0.40;0.20;;;2.00;99.90;;;;;;4973814;28;20937;-73
2022/02/13 05:09:04;;;;;;;0.40;0.20;;;2.00;99.90;;;;;;4990847;28;20913;-73
2022/02/13 05:11:30;;;;;;;0.40;0.20;;;1.90;99.90;;;;;;4989818;28;20502;-73
2022/02/13 05:13:55;;;;;;;0.40;0.20;;;1.90;99.90;;;;;;4973685;28;20484;-73
2022/02/13 05:16:21;;;;;;;0.40;0.20;;;2.00;99.90;;;;;;4990277;28;20415;-73
2022/02/13 05:18:47;;;;;;;0.40;0.30;;;2.00;99.90;;;;;;4991073;28;20861;-73
2022/02/13 05:21:13;;;;;;;0.40;0.20;;;2.00;99.90;;;;;;4990808;28;20525;-74
2022/02/13 05:23:38;;;;;;;0.40;0.20;;;2.00;99.90;;;;;;4990422;28;20401;-73
2022/02/13 05:26:04;;;;;;;0.40;0.30;;;1.90;99.90;;;;;;4991041;28;20395;-73
2022/02/13 05:28:30;;;;;;;0.40;0.20;;;2.00;99.90;;;;;;4989935;28;20910;-73
2022/02/13 05:30:55;;;;;;;0.60;0.60;;;1.90;99.90;;;;;;4990700;28;20378;-73
2022/02/13 05:33:21;;;;;;;0.40;0.20;;;1.90;99.90;;;;;;4990624;28;20417;-73
2022/02/13 05:35:47;;;;;;;0.40;0.20;;;1.90;99.90;;;;;;4989896;28;20397;-73
2022/02/13 05:38:20;;;;;;;0.40;0.20;;;1.90;99.90;;;;;;4990808;28;20389;-73
2022/02/13 05:40:46;;;;;;;0.40;0.20;;;1.90;99.90;;;;;;4992127;28;20472;-73
2022/02/13 05:43:12;;;;;;;0.40;0.40;;;1.90;99.90;;;;;;4994377;28;20852;-73
2022/02/13 05:45:37;;;;;;;0.40;0.20;;;1.80;99.90;;;;;;4993885;28;20379;-73
2022/02/13 05:48:03;;;;;;;0.40;0.20;;;1.80;99.90;;;;;;4994069;28;20870;-73
2022/02/13 05:50:29;;;;;;;0.40;0.20;;;1.80;99.90;;;;;;4994294;28;20382;-73
2022/02/13 05:52:54;;;;;;;1.60;0.80;;;1.80;99.90;;;;;;4993389;28;20938;-73
2022/02/13 05:55:20;;;;;;;0.40;0.20;;;1.70;99.90;;;;;;4976802;28;20434;-73
2022/02/13 05:57:46;;;;;;;0.80;0.70;;;1.80;99.90;;;;;;4993906;28;20421;-72
2022/02/13 06:00:13;;;;;;;0.40;0.20;;;1.70;99.90;;;;;;4993659;28;20469;-73
2022/02/13 06:02:39;;;;;;;0.40;0.20;;;1.80;99.90;;;;;;4976604;28;20429;-73
2022/02/13 06:05:06;;;;;;;0.40;0.30;;;1.90;99.90;;;;;;4993176;28;20453;-73
2022/02/13 06:07:39;;;;;;;1.00;0.90;;;1.80;99.90;;;;;;4993865;28;20733;-73
2022/02/13 06:10:07;;;;;;;0.40;0.20;;;1.80;99.90;;;;;;4992780;28;20958;-73
2022/02/13 06:12:33;;;;;;;0.40;0.20;;;1.80;99.90;;;;;;4993799;28;20476;-73
2022/02/13 06:14:58;;;;;;;0.40;0.20;;;1.90;99.90;;;;;;4993521;28;20397;-73
2022/02/13 06:17:24;;;;;;;0.40;0.30;;;1.80;99.90;;;;;;4992967;28;20386;-73
2022/02/13 06:19:50;;;;;;;0.40;0.30;;;1.80;99.90;;;;;;4993539;28;20868;-73
2022/02/13 06:22:16;;;;;;;0.63;0.52;;;1.80;99.90;;;;;;4992889;28;20395;-73
2022/02/13 06:24:41;;;;;;;0.40;0.20;;;1.70;99.90;;;;;;4993404;28;20791;-73
2022/02/13 06:27:07;;;;;;;0.40;0.30;;;1.70;99.90;;;;;;4993242;28;20449;-73
2022/02/13 06:29:33;;;;;;;0.40;0.20;;;1.70;99.90;;;;;;4993257;28;20383;-73
2022/02/13 06:32:00;;;;;;;0.40;0.20;;;1.70;99.90;;;;;;4993500;28;20480;-73
2022/02/13 06:34:27;;;;;;;0.40;0.20;;;1.80;99.90;;;;;;4992616;28;20379;-73
2022/02/13 06:36:52;;;;;;;0.40;0.30;;;1.70;99.90;;;;;;4993546;28;20418;-73
2022/02/13 06:39:18;;;;;;;0.40;0.20;;;1.70;99.90;;;;;;4992792;28;20423;-73
2022/02/13 06:41:44;;;;;;;0.40;0.30;;;1.70;99.90;;;;;;4975234;28;20485;-72
2022/02/13 06:44:10;;;;;;;0.40;0.20;;;1.60;99.90;;;;;;4992969;28;20935;-73
2022/02/13 06:46:36;;;;;;;0.80;0.80;;;1.60;99.90;;;;;;4992387;28;20383;-73
2022/02/13 06:49:01;;;;;;;0.40;0.20;;;1.60;99.90;;;;;;4993260;28;20436;-73
2022/02/13 06:51:27;;;;;;;0.40;0.20;;;1.60;99.90;;;;;;4991702;28;20383;-73
2022/02/13 06:53:53;;;;;;;0.40;0.20;;;1.60;99.90;;;;;;4992435;28;20429;-73
2022/02/13 06:56:18;;;;;;;0.40;0.20;;;1.70;99.90;;;;;;4993344;28;20870;-73
2022/02/13 06:58:44;;;;;;;0.40;0.20;;;1.70;99.90;;;;;;4992158;28;20390;-70
2022/02/13 07:01:10;;;;;;;0.40;0.40;;;1.70;99.90;;;;;;4993015;28;20391;-73
2022/02/13 07:03:36;;;;;;;0.40;0.20;;;1.70;99.90;;;;;;4992835;28;20390;-73
2022/02/13 07:06:02;;;;;;;0.40;0.20;;;1.70;99.90;;;;;;4992496;28;20422;-73
2022/02/13 07:08:29;;;;;;;0.40;0.20;;;1.80;99.90;;;;;;4992596;28;20419;-73
2022/02/13 07:10:55;;;;;;;0.40;0.20;;;1.80;99.90;;;;;;4991453;28;20422;-73
2022/02/13 07:13:21;;;;;;;0.40;0.20;;;1.80;99.90;;;;;;4992690;28;20711;-73
2022/02/13 07:15:47;;;;;;;0.40;0.20;;;1.80;99.90;;;;;;4992077;28;20478;-72
2022/02/13 07:18:13;;;;;;;1.20;1.00;;;1.90;99.90;;;;;;4991917;28;20418;-73
2022/02/13 07:20:39;;;;;;;0.40;0.20;;;2.00;99.90;;;;;;4975013;28;20394;-73
2022/02/13 07:23:05;;;;;;;0.80;0.60;;;2.00;99.90;;;;;;4974408;28;20402;-73
2022/02/13 07:25:30;;;;;;;0.40;0.20;;;2.10;99.90;;;;;;4992446;28;20697;-73
2022/02/13 07:27:56;;;;;;;0.40;0.20;;;2.10;99.90;;;;;;4974925;28;20887;-73
2022/02/13 07:30:22;;;;;;;0.73;0.60;;;2.20;99.90;;;;;;4991564;28;20390;-72
2022/02/13 07:32:47;;;;;;;0.40;0.20;;;2.20;99.90;;;;;;4991691;28;20985;-73
2022/02/13 07:35:14;;;;;;;0.40;0.20;;;2.20;99.90;;;;;;4985429;28;20398;-73
2022/02/13 07:37:40;;;;;;;1.10;0.80;;;2.30;99.90;;;;;;4974812;28;20394;-72
2022/02/13 07:40:07;;;;;;;0.45;0.45;;;2.30;99.90;;;;;;4974468;28;20514;-72
2022/02/13 07:42:33;;;;;;;0.40;0.20;;;2.40;99.90;;;;;;4991488;28;20402;-73
2022/02/13 07:44:58;;;;;;;0.40;0.30;;;2.50;99.90;;;;;;4991860;28;20383;-74
2022/02/13 07:47:25;;;;;;;0.60;0.60;;;2.60;99.90;;;;;;4991089;28;20385;-73
2022/02/13 07:49:51;;;;;;;0.40;0.20;;;2.70;99.90;;;;;;4991994;28;20382;-72
2022/02/13 07:52:16;;;;;;;0.40;0.20;;;2.70;99.90;;;;;;4991758;28;20403;-71
2022/02/13 07:54:42;;;;;;;0.40;0.20;;;2.80;99.90;;;;;;4973998;28;20395;-72
2022/02/13 07:57:08;;;;;;;0.40;0.20;;;2.90;99.90;;;;;;4992116;28;20397;-72
2022/02/13 07:59:35;;;;;;;0.40;0.20;;;3.00;99.90;;;;;;4991042;28;20743;-73
2022/02/13 08:02:00;;;;;;;0.40;0.40;;;3.00;99.90;;;;;;4991783;28;20382;-72
2022/02/13 08:04:27;;;;;;;1.40;0.85;;;3.10;99.90;;;;;;4990866;28;20746;-71
2022/02/13 08:06:53;;;;;;;0.40;0.40;;;3.20;99.90;;;;;;4991688;28;20441;-72
2022/02/13 08:09:18;;;;;;;0.47;0.43;;;3.20;99.90;;;;;;4991650;28;20783;-72
2022/02/13 08:11:44;;;;;;;0.40;0.20;;;3.30;99.90;;;;;;4969990;28;20424;-72
2022/02/13 08:14:10;;;;;;;0.50;0.40;;;3.40;99.90;;;;;;4971000;28;20503;-72
2022/02/13 08:16:35;;;;;;;0.50;0.50;;;3.40;99.90;;;;;;4971807;28;20385;-72
2022/02/13 08:19:01;;;;;;;0.40;0.20;;;3.60;99.90;;;;;;4971451;28;20395;-73
2022/02/13 08:21:27;;;;;;;0.40;0.30;;;3.70;99.90;;;;;;4972568;28;20503;-72
2022/02/13 08:23:53;;;;;;;0.40;0.20;;;3.70;99.90;;;;;;4972013;28;20397;-74
2022/02/13 08:26:19;;;;;;;1.80;0.80;;;3.90;99.90;;;;;;4972666;28;20475;-72
2022/02/13 08:28:46;;;;;;;0.40;0.20;;;3.90;99.90;;;;;;4972143;28;20723;-71
2022/02/13 08:31:13;;;;;;;1.30;1.20;;;4.00;99.90;;;;;;4971731;28;20385;-72
2022/02/13 08:33:40;;;;;;;0.55;0.40;;;4.10;99.90;;;;;;4971892;28;20828;-72
2022/02/13 08:36:05;;;;;;;0.40;0.30;;;4.10;99.90;;;;;;4971140;28;20390;-71
2022/02/13 08:38:31;;;;;;;0.60;0.60;;;4.30;99.90;;;;;;4972033;28;20527;-72
2022/02/13 08:40:57;;;;;;;0.40;0.20;;;4.30;99.90;;;;;;4971195;28;20404;-72
2022/02/13 08:43:23;;;;;;;0.40;0.20;;;4.40;99.90;;;;;;4971887;28;20498;-72
2022/02/13 08:45:50;;;;;;;0.40;0.30;;;4.40;99.90;;;;;;4971468;28;20443;-72
2022/02/13 08:48:21;;;;;;;0.50;0.50;;;4.60;99.90;;;;;;4971141;28;20416;-72
2022/02/13 08:50:47;;;;;;;0.40;0.20;;;4.70;99.90;;;;;;4971880;28;20403;-72
2022/02/13 08:53:14;;;;;;;0.40;0.30;;;4.80;99.90;;;;;;4969720;28;20502;-72
2022/02/13 08:55:41;;;;;;;0.50;0.50;;;4.90;99.90;;;;;;4971409;28;20399;-72
2022/02/13 08:58:07;;;;;;;0.40;0.20;;;5.00;99.90;;;;;;4971095;28;20400;-71
2022/02/13 09:00:33;;;;;;;0.80;0.80;;;5.10;99.90;;;;;;4958129;28;20455;-72
2022/02/13 09:02:58;;;;;;;0.40;0.20;;;5.20;99.90;;;;;;4952617;29;20394;-72
2022/02/13 09:05:24;;;;;;;0.40;0.20;;;5.40;99.90;;;;;;4954706;28;20440;-72
2022/02/13 09:07:50;;;;;;;0.40;0.40;;;5.50;99.90;;;;;;4969617;28;20397;-72
2022/02/13 09:10:16;;;;;;;0.50;0.50;;;5.70;99.90;;;;;;4958166;28;20470;-72
2022/02/13 09:12:42;;;;;;;0.40;0.28;;;5.80;99.90;;;;;;4971578;28;20424;-72
2022/02/13 09:15:09;;;;;;;0.40;0.20;;;5.70;99.90;;;;;;4972591;28;20769;-72
2022/02/13 09:17:35;;;;;;;0.40;0.20;;;5.80;99.90;;;;;;4974618;28;20384;-72
2022/02/13 09:20:01;;;;;;;0.40;0.20;;;5.80;99.90;;;;;;4986013;28;20906;-72
2022/02/13 09:22:27;;;;;;;0.40;0.20;;;5.90;99.90;;;;;;4993699;28;20394;-71
2022/02/13 09:24:53;;;;;;;0.40;0.20;;;6.00;99.90;;;;;;4977166;28;20497;-72
2022/02/13 09:27:18;;;;;;;0.40;0.20;;;6.20;99.90;;;;;;4994331;28;20386;-72
2022/02/13 09:29:44;;;;;;;0.40;0.20;;;6.30;99.90;;;;;;4993986;28;20448;-72
2022/02/13 09:32:10;;;;;;;0.40;0.20;;;6.50;99.90;;;;;;4994477;28;20505;-72
2022/02/13 09:34:36;;;;;;;0.40;0.20;;;6.60;99.90;;;;;;4976364;28;20477;-72
2022/02/13 09:37:02;;;;;;;0.70;0.70;;;6.60;99.90;;;;;;4994419;28;20394;-72
2022/02/13 09:39:29;;;;;;;0.40;0.30;;;6.70;99.90;;;;;;4993542;28;20390;-72
2022/02/13 09:41:55;;;;;;;0.40;0.30;;;6.80;99.90;;;;;;4992698;28;20783;-72
2022/02/13 09:44:23;;;;;;;0.90;0.90;;;6.80;99.90;;;;;;4988269;28;20398;-72
2022/02/13 09:46:49;;;;;;;1.10;0.70;;;7.00;99.90;;;;;;4976182;28;20425;-72
2022/02/13 09:49:24;;;;;;;0.50;0.40;;;7.10;99.90;;;;;;4973108;28;20394;-72
2022/02/13 09:51:50;;;;;;;0.40;0.20;;;7.30;99.90;;;;;;4972197;28;20402;-72
2022/02/13 09:54:16;;;;;;;0.50;0.50;;;7.40;99.90;;;;;;4992106;28;20522;-72
2022/02/13 09:56:43;;;;;;;0.40;0.20;;;7.40;99.90;;;;;;4974714;28;20402;-71
2022/02/13 09:59:10;;;;;;;0.70;0.70;;;7.50;99.90;;;;;;4992905;28;20752;-72
2022/02/13 10:01:45;;;;;;;0.40;0.20;;;7.60;99.90;;;;;;4990907;28;20390;-72
2022/02/13 10:04:12;;;;;;;0.40;0.20;;;7.80;99.90;;;;;;4992551;28;20823;-72
2022/02/13 10:06:39;;;;;;;0.70;0.60;;;7.90;99.90;;;;;;4959113;28;20962;-72
2022/02/13 10:09:06;;;;;;;0.40;0.20;;;8.10;99.90;;;;;;4992182;28;20401;-72
2022/02/13 10:11:34;;;;;;;0.40;0.20;;;8.10;99.90;;;;;;4974735;28;20414;-72
2022/02/13 10:14:12;;;;;;;0.50;0.50;;;8.40;99.90;;;;;;4990646;28;20425;-72
2022/02/13 10:16:45;;;;;;;0.57;0.57;;;8.50;99.90;;;;;;4992133;28;20950;-73
2022/02/13 10:19:22;;;;;;;0.40;0.20;;;8.70;99.60;;;;;;4989233;28;20388;-72
2022/02/13 10:21:51;;;;;;;0.40;0.30;;;8.80;99.50;;;;;;4992450;28;20379;-71
2022/02/13 10:24:26;;;;;;;0.40;0.20;;;9.30;91.60;;;;;;4991769;28;20390;-72
2022/02/13 10:27:00;;;;;;;0.47;0.47;;;9.60;91.10;;;;;;4988156;28;20853;-72
2022/02/13 10:29:30;;;;;;;0.40;0.20;;;9.60;91.70;;;;;;4989224;28;20382;-73
2022/02/13 10:32:15;;;;;;;0.40;0.20;;;9.80;90.60;;;;;;4991675;28;20477;-72
2022/02/13 10:35:00;;;;;;;0.40;0.20;;;10.10;77.60;;;;;;4991326;28;20402;-73
2022/02/13 10:37:40;;;;;;;0.40;0.20;;;10.50;71.70;;;;;;4989439;28;20489;-73
2022/02/13 10:40:19;;;;;;;0.40;0.20;;;10.80;68.90;;;;;;4989710;28;20751;-72
2022/02/13 10:42:46;;;;;;;0.40;0.20;;;10.80;66.90;;;;;;4991106;28;20386;-73
2022/02/13 10:45:26;;;;;;;0.40;0.30;;;10.90;66.80;;;;;;4991064;28;20423;-72
2022/02/13 10:48:04;;;;;;;0.40;0.20;;;11.00;65.00;;;;;;4991784;28;20410;-73
2022/02/13 10:50:34;;;;;;;0.40;0.20;;;11.20;64.70;;;;;;4992348;28;20378;-73
2022/02/13 10:53:01;;;;;;;0.40;0.20;;;11.30;62.70;;;;;;4970115;28;20469;-74
2022/02/13 10:55:28;;;;;;;0.40;0.20;;;11.30;60.50;;;;;;4991148;28;20390;-73
2022/02/13 10:57:54;;;;;;;0.40;0.20;;;11.20;60.60;;;;;;4958410;28;20875;-73
2022/02/13 11:00:20;;;;;;;0.50;0.47;;;11.30;60.30;;;;;;4973729;28;20897;-72
2022/02/13 11:02:50;;;;;;;0.40;0.20;;;11.40;60.60;;;;;;4973264;28;20791;-71
2022/02/13 11:05:21;;;;;;;0.40;0.20;;;11.50;59.80;;;;;;4990847;28;20378;-71
2022/02/13 11:07:53;;;;;;;0.40;0.30;;;11.60;60.10;;;;;;4992607;28;20752;-72
2022/02/13 11:10:42;;;;;;;0.40;0.30;;;11.80;60.50;;;;;;4991895;28;20450;-71
2022/02/13 11:13:11;;;;;;;0.40;0.20;;;11.90;60.00;;;;;;4992263;28;20830;-72
2022/02/13 11:15:39;;;;;;;0.40;0.30;;;12.10;59.70;;;;;;4991823;28;20419;-73
2022/02/13 11:18:07;;;;;;;0.40;0.40;;;12.10;58.80;;;;;;4992466;28;20388;-73
2022/02/13 11:20:35;;;;;;;0.70;0.70;;;12.00;58.30;;;;;;4991221;28;20441;-72
2022/02/13 11:23:24;;;;;;;0.40;0.20;;;12.20;58.30;;;;;;4992393;28;20386;-72
2022/02/13 11:26:07;;;;;;;0.40;0.30;;;12.20;58.30;;;;;;4992483;28;20478;-73
2022/02/13 11:28:42;;;;;;;0.40;0.22;;;12.50;57.80;;;;;;4991631;28;20391;-72
2022/02/13 11:31:28;;;;;;;0.40;0.20;;;12.30;57.20;;;;;;4992352;28;20390;-72
2022/02/13 11:33:54;;;;;;;0.40;0.22;;;12.60;57.80;;;;;;4991341;28;20414;-72
2022/02/13 11:36:20;;;;;;;0.40;0.20;;;13.50;56.20;;;;;;4974710;28;20390;-72
2022/02/13 11:38:46;;;;;;;0.40;0.20;;;13.90;54.70;;;;;;4990684;28;20382;-71
2022/02/13 11:41:16;;;;;;;0.40;0.20;;;14.10;53.30;;;;;;4974222;28;20410;-72
2022/02/13 11:43:45;;;;;;;0.40;0.20;;;14.40;53.20;;;;;;4991185;28;20403;-71
2022/02/13 11:46:14;;;;;;;0.40;0.30;;;14.70;53.50;;;;;;4990691;28;20391;-72
2022/02/13 11:48:44;;;;;;;0.40;0.30;;;15.10;52.10;;;;;;4987123;28;20509;-72
2022/02/13 11:51:12;;;;;;;0.40;0.30;;;15.20;51.20;;;;;;4991733;28;20387;-72
2022/02/13 11:53:42;;;;;;;0.60;0.60;;;15.40;51.50;;;;;;4987674;28;20472;-72
2022/02/13 11:56:26;;;;;;;0.40;0.30;;;15.00;50.50;;;;;;4973809;28;20895;-73
2022/02/13 11:58:53;;;;;;;0.40;0.20;;;15.20;50.80;;;;;;4989354;28;20395;-72
2022/02/13 12:01:37;;;;;;;0.40;0.20;;;15.50;50.20;;;;;;4992324;28;20747;-72
2022/02/13 12:04:08;;;;;;;0.40;0.30;;;15.60;49.80;;;;;;4992063;28;20501;-72
2022/02/13 12:06:35;;;;;;;0.40;0.20;;;16.10;49.30;;;;;;4974323;28;20399;-73
2022/02/13 12:09:11;;;;;;;0.40;0.20;;;16.90;48.30;;;;;;4990668;28;20386;-72
2022/02/13 12:11:37;;;;;;;0.60;0.60;;;16.20;47.80;;;;;;4991336;28;20903;-72
2022/02/13 12:14:20;;;;;;;0.70;0.60;;;16.70;47.40;;;;;;4990659;28;20426;-72
2022/02/13 12:16:58;;;;;;;0.40;0.20;;;17.00;47.60;;;;;;4991760;28;20391;-73
2022/02/13 12:19:33;;;;;;;0.40;0.20;;;17.10;46.20;;;;;;4991238;28;20466;-72
2022/02/13 12:22:14;;;;;;;0.40;0.30;;;16.90;46.50;;;;;;4990516;28;20879;-72
2022/02/13 12:24:40;;;;;;;0.40;0.30;;;16.50;46.30;;;;;;4991489;28;20390;-72
2022/02/13 12:27:07;;;;;;;0.40;0.20;;;16.40;46.60;;;;;;4973305;28;20395;-72
2022/02/13 12:29:33;;;;;;;0.40;0.20;;;17.20;46.10;;;;;;4991376;28;20382;-72
2022/02/13 12:32:10;;;;;;;0.40;0.20;;;16.90;45.70;;;;;;4990885;28;20852;-71
2022/02/13 12:35:09;;;;;;;0.40;0.30;;;16.90;45.80;;;;;;4991459;28;20401;-72
2022/02/13 12:37:45;;;;;;;0.40;0.30;;;17.20;45.80;;;;;;4948597;28;20406;-72
2022/02/13 12:40:16;;;;;;;0.40;0.30;;;17.70;45.20;;;;;;4990577;28;20411;-71
2022/02/13 12:42:46;;;;;;;0.40;0.30;;;17.00;45.20;;;;;;4991219;28;20409;-72
2022/02/13 12:45:16;;;;;;;0.40;0.30;;;16.90;45.90;;;;;;4990615;28;20473;-72
2022/02/13 12:47:45;;;;;;;0.40;0.20;;;17.30;45.10;;;;;;4991358;28;20880;-72
2022/02/13 12:50:25;;;;;;;0.40;0.20;;;17.00;46.00;;;;;;4991704;28;20390;-72
2022/02/13 12:52:51;;;;;;;0.40;0.20;;;17.00;45.30;;;;;;4995274;28;20502;-72
2022/02/13 12:55:20;;;;;;;0.40;0.20;;;17.10;45.70;;;;;;4994687;28;20390;-72
2022/02/13 12:57:51;;;;;;;0.40;0.20;;;16.80;45.50;;;;;;4995248;28;20715;-73